sensor_id;sensor_type;location;lat;lon;timestamp;pressure;altitude;pressure_sealevel;temperature
12918;BMP180;6526;54.312;13.092;2022-07-21T00:00:13;101893.00;;;27.60
12918;BMP180;6526;54.312;13.092;2022-07-21T00:02:39;101900.00;;;27.60
12918;BMP180;6526;54.312;13.092;2022-07-21T00:05:06;101896.00;;;27.60
12918;BMP180;6526;54.312;13.092;2022-07-21T00:07:32;101886.00;;;27.60
12918;BMP180;6526;54.312;13.092;2022-07-21T00:09:59;101881.00;;;27.70
12918;BMP180;6526;54.312;13.092;2022-07-21T00:12:25;101886.00;;;27.70
12918;BMP180;6526;54.312;13.092;2022-07-21T00:14:51;101877.00;;;27.80
12918;BMP180;6526;54.312;13.092;2022-07-21T00:17:17;101877.00;;;27.80
12918;BMP180;6526;54.312;13.092;2022-07-21T00:19:43;101877.00;;;27.80
12918;BMP180;6526;54.312;13.092;2022-07-21T00:22:09;101865.00;;;27.80
12918;BMP180;6526;54.312;13.092;2022-07-21T00:24:35;101864.00;;;27.80
12918;BMP180;6526;54.312;13.092;2022-07-21T00:27:01;101860.00;;;27.90
12918;BMP180;6526;54.312;13.092;2022-07-21T00:29:27;101870.00;;;27.90
12918;BMP180;6526;54.312;13.092;2022-07-21T00:31:53;101870.00;;;27.90
12918;BMP180;6526;54.312;13.092;2022-07-21T00:34:19;101859.00;;;27.80
12918;BMP180;6526;54.312;13.092;2022-07-21T00:36:45;101858.00;;;27.90
12918;BMP180;6526;54.312;13.092;2022-07-21T00:39:11;101860.00;;;27.90
12918;BMP180;6526;54.312;13.092;2022-07-21T00:41:37;101861.00;;;27.80
12918;BMP180;6526;54.312;13.092;2022-07-21T00:44:03;101848.00;;;27.80
12918;BMP180;6526;54.312;13.092;2022-07-21T00:46:29;101841.00;;;27.80
12918;BMP180;6526;54.312;13.092;2022-07-21T00:48:56;101844.00;;;27.80
12918;BMP180;6526;54.312;13.092;2022-07-21T00:51:22;101843.00;;;27.90
12918;BMP180;6526;54.312;13.092;2022-07-21T00:53:48;101838.00;;;28.00
12918;BMP180;6526;54.312;13.092;2022-07-21T00:56:14;101833.00;;;27.90
12918;BMP180;6526;54.312;13.092;2022-07-21T00:58:41;101843.00;;;27.80
12918;BMP180;6526;54.312;13.092;2022-07-21T01:01:07;101843.00;;;27.70
12918;BMP180;6526;54.312;13.092;2022-07-21T01:03:33;101841.00;;;27.70
12918;BMP180;6526;54.312;13.092;2022-07-21T01:05:59;101836.00;;;27.70
12918;BMP180;6526;54.312;13.092;2022-07-21T01:08:26;101832.00;;;27.60
12918;BMP180;6526;54.312;13.092;2022-07-21T01:10:53;101836.00;;;27.70
12918;BMP180;6526;54.312;13.092;2022-07-21T01:13:20;101837.00;;;27.70
12918;BMP180;6526;54.312;13.092;2022-07-21T01:15:46;101822.00;;;27.70
12918;BMP180;6526;54.312;13.092;2022-07-21T01:18:12;101810.00;;;27.70
12918;BMP180;6526;54.312;13.092;2022-07-21T01:20:39;101826.00;;;27.60
12918;BMP180;6526;54.312;13.092;2022-07-21T01:23:06;101827.00;;;27.60
12918;BMP180;6526;54.312;13.092;2022-07-21T01:25:32;101827.00;;;27.70
12918;BMP180;6526;54.312;13.092;2022-07-21T01:27:58;101818.00;;;27.80
12918;BMP180;6526;54.312;13.092;2022-07-21T01:30:25;101817.00;;;27.70
12918;BMP180;6526;54.312;13.092;2022-07-21T01:32:51;101823.00;;;27.60
12918;BMP180;6526;54.312;13.092;2022-07-21T01:35:18;101815.00;;;27.50
12918;BMP180;6526;54.312;13.092;2022-07-21T01:37:46;101819.00;;;27.50
12918;BMP180;6526;54.312;13.092;2022-07-21T01:40:13;101808.00;;;27.50
12918;BMP180;6526;54.312;13.092;2022-07-21T01:42:58;101809.00;;;27.60
12918;BMP180;6526;54.312;13.092;2022-07-21T01:45:24;101812.00;;;27.50
12918;BMP180;6526;54.312;13.092;2022-07-21T01:47:50;101801.00;;;27.60
12918;BMP180;6526;54.312;13.092;2022-07-21T01:50:16;101801.00;;;27.60
12918;BMP180;6526;54.312;13.092;2022-07-21T01:52:44;101802.00;;;27.50
12918;BMP180;6526;54.312;13.092;2022-07-21T01:55:11;101796.00;;;27.50
12918;BMP180;6526;54.312;13.092;2022-07-21T01:57:37;101801.00;;;27.50
12918;BMP180;6526;54.312;13.092;2022-07-21T02:00:04;101796.00;;;27.50
12918;BMP180;6526;54.312;13.092;2022-07-21T02:02:31;101787.00;;;27.40
12918;BMP180;6526;54.312;13.092;2022-07-21T02:04:56;101776.00;;;27.30
12918;BMP180;6526;54.312;13.092;2022-07-21T02:07:22;101779.00;;;27.20
12918;BMP180;6526;54.312;13.092;2022-07-21T02:09:48;101782.00;;;27.10
12918;BMP180;6526;54.312;13.092;2022-07-21T02:12:14;101766.00;;;27.30
12918;BMP180;6526;54.312;13.092;2022-07-21T02:14:40;101767.00;;;27.30
12918;BMP180;6526;54.312;13.092;2022-07-21T02:17:06;101762.00;;;27.30
12918;BMP180;6526;54.312;13.092;2022-07-21T02:19:32;101767.00;;;27.30
12918;BMP180;6526;54.312;13.092;2022-07-21T02:21:58;101764.00;;;27.20
12918;BMP180;6526;54.312;13.092;2022-07-21T02:24:24;101773.00;;;27.20
12918;BMP180;6526;54.312;13.092;2022-07-21T02:26:50;101767.00;;;27.40
12918;BMP180;6526;54.312;13.092;2022-07-21T02:29:16;101763.00;;;27.30
12918;BMP180;6526;54.312;13.092;2022-07-21T02:31:42;101761.00;;;27.30
12918;BMP180;6526;54.312;13.092;2022-07-21T02:34:08;101764.00;;;27.50
12918;BMP180;6526;54.312;13.092;2022-07-21T02:36:35;101762.00;;;27.50
12918;BMP180;6526;54.312;13.092;2022-07-21T02:39:01;101766.00;;;27.50
12918;BMP180;6526;54.312;13.092;2022-07-21T02:41:27;101754.00;;;27.30
12918;BMP180;6526;54.312;13.092;2022-07-21T02:43:53;101758.00;;;27.30
12918;BMP180;6526;54.312;13.092;2022-07-21T02:46:19;101744.00;;;27.30
12918;BMP180;6526;54.312;13.092;2022-07-21T02:48:45;101755.00;;;27.30
12918;BMP180;6526;54.312;13.092;2022-07-21T02:51:11;101768.00;;;27.30
12918;BMP180;6526;54.312;13.092;2022-07-21T02:53:37;101763.00;;;27.20
12918;BMP180;6526;54.312;13.092;2022-07-21T02:56:03;101778.00;;;27.10
12918;BMP180;6526;54.312;13.092;2022-07-21T02:58:30;101782.00;;;27.10
12918;BMP180;6526;54.312;13.092;2022-07-21T03:00:58;101784.00;;;27.00
12918;BMP180;6526;54.312;13.092;2022-07-21T03:03:27;101773.00;;;27.00
12918;BMP180;6526;54.312;13.092;2022-07-21T03:05:54;101779.00;;;27.00
12918;BMP180;6526;54.312;13.092;2022-07-21T03:08:21;101773.00;;;26.90
12918;BMP180;6526;54.312;13.092;2022-07-21T03:10:48;101768.00;;;27.00
12918;BMP180;6526;54.312;13.092;2022-07-21T03:13:14;101774.00;;;27.00
12918;BMP180;6526;54.312;13.092;2022-07-21T03:15:40;101769.00;;;27.00
12918;BMP180;6526;54.312;13.092;2022-07-21T03:18:07;101770.00;;;26.90
12918;BMP180;6526;54.312;13.092;2022-07-21T03:20:37;101765.00;;;26.80
12918;BMP180;6526;54.312;13.092;2022-07-21T03:23:03;101762.00;;;26.80
12918;BMP180;6526;54.312;13.092;2022-07-21T03:25:30;101772.00;;;26.90
12918;BMP180;6526;54.312;13.092;2022-07-21T03:27:56;101758.00;;;26.90
12918;BMP180;6526;54.312;13.092;2022-07-21T03:30:23;101751.00;;;26.90
12918;BMP180;6526;54.312;13.092;2022-07-21T03:32:50;101749.00;;;26.80
12918;BMP180;6526;54.312;13.092;2022-07-21T03:35:17;101746.00;;;26.70
12918;BMP180;6526;54.312;13.092;2022-07-21T03:37:51;101728.00;;;26.60
12918;BMP180;6526;54.312;13.092;2022-07-21T03:40:19;101747.00;;;26.40
12918;BMP180;6526;54.312;13.092;2022-07-21T03:42:49;101739.00;;;26.30
12918;BMP180;6526;54.312;13.092;2022-07-21T03:45:17;101748.00;;;26.20
12918;BMP180;6526;54.312;13.092;2022-07-21T03:47:43;101745.00;;;26.20
12918;BMP180;6526;54.312;13.092;2022-07-21T03:50:09;101736.00;;;26.30
12918;BMP180;6526;54.312;13.092;2022-07-21T03:52:37;101739.00;;;26.40
12918;BMP180;6526;54.312;13.092;2022-07-21T03:55:04;101744.00;;;26.40
12918;BMP180;6526;54.312;13.092;2022-07-21T03:57:42;101736.00;;;26.40
12918;BMP180;6526;54.312;13.092;2022-07-21T04:00:13;101735.00;;;26.40
12918;BMP180;6526;54.312;13.092;2022-07-21T04:02:40;101735.00;;;26.40
12918;BMP180;6526;54.312;13.092;2022-07-21T04:05:09;101742.00;;;26.60
12918;BMP180;6526;54.312;13.092;2022-07-21T04:07:36;101754.00;;;26.60
12918;BMP180;6526;54.312;13.092;2022-07-21T04:10:03;101745.00;;;26.80
12918;BMP180;6526;54.312;13.092;2022-07-21T04:12:30;101736.00;;;26.80
12918;BMP180;6526;54.312;13.092;2022-07-21T04:14:56;101737.00;;;26.80
12918;BMP180;6526;54.312;13.092;2022-07-21T04:17:22;101736.00;;;26.80
12918;BMP180;6526;54.312;13.092;2022-07-21T04:19:49;101744.00;;;26.80
12918;BMP180;6526;54.312;13.092;2022-07-21T04:22:15;101745.00;;;26.90
12918;BMP180;6526;54.312;13.092;2022-07-21T04:24:41;101735.00;;;26.90
12918;BMP180;6526;54.312;13.092;2022-07-21T04:27:07;101728.00;;;27.00
12918;BMP180;6526;54.312;13.092;2022-07-21T04:29:33;101726.00;;;26.90
12918;BMP180;6526;54.312;13.092;2022-07-21T04:31:59;101730.00;;;26.90
12918;BMP180;6526;54.312;13.092;2022-07-21T04:34:25;101737.00;;;26.90
12918;BMP180;6526;54.312;13.092;2022-07-21T04:36:52;101737.00;;;26.90
12918;BMP180;6526;54.312;13.092;2022-07-21T04:39:19;101736.00;;;26.80
12918;BMP180;6526;54.312;13.092;2022-07-21T04:41:45;101736.00;;;26.90
12918;BMP180;6526;54.312;13.092;2022-07-21T04:44:11;101733.00;;;27.00
12918;BMP180;6526;54.312;13.092;2022-07-21T04:46:37;101729.00;;;27.00
12918;BMP180;6526;54.312;13.092;2022-07-21T04:49:03;101735.00;;;27.10
12918;BMP180;6526;54.312;13.092;2022-07-21T04:51:29;101727.00;;;27.20
12918;BMP180;6526;54.312;13.092;2022-07-21T04:53:55;101730.00;;;27.40
12918;BMP180;6526;54.312;13.092;2022-07-21T04:56:21;101728.00;;;27.50
12918;BMP180;6526;54.312;13.092;2022-07-21T04:58:47;101743.00;;;27.50
12918;BMP180;6526;54.312;13.092;2022-07-21T05:01:13;101748.00;;;27.50
12918;BMP180;6526;54.312;13.092;2022-07-21T05:03:40;101742.00;;;27.50
12918;BMP180;6526;54.312;13.092;2022-07-21T05:06:06;101729.00;;;27.50
12918;BMP180;6526;54.312;13.092;2022-07-21T05:08:32;101739.00;;;27.70
12918;BMP180;6526;54.312;13.092;2022-07-21T05:10:58;101751.00;;;27.80
12918;BMP180;6526;54.312;13.092;2022-07-21T05:13:24;101737.00;;;28.00
12918;BMP180;6526;54.312;13.092;2022-07-21T05:15:50;101744.00;;;28.00
12918;BMP180;6526;54.312;13.092;2022-07-21T05:18:16;101742.00;;;28.10
12918;BMP180;6526;54.312;13.092;2022-07-21T05:20:42;101735.00;;;28.00
12918;BMP180;6526;54.312;13.092;2022-07-21T05:23:09;101747.00;;;28.10
12918;BMP180;6526;54.312;13.092;2022-07-21T05:25:35;101751.00;;;28.00
12918;BMP180;6526;54.312;13.092;2022-07-21T05:28:01;101753.00;;;28.00
12918;BMP180;6526;54.312;13.092;2022-07-21T05:30:27;101745.00;;;28.00
12918;BMP180;6526;54.312;13.092;2022-07-21T05:32:53;101744.00;;;28.00
12918;BMP180;6526;54.312;13.092;2022-07-21T05:35:20;101746.00;;;28.10
12918;BMP180;6526;54.312;13.092;2022-07-21T05:37:46;101735.00;;;28.10
12918;BMP180;6526;54.312;13.092;2022-07-21T05:40:12;101725.00;;;28.10
12918;BMP180;6526;54.312;13.092;2022-07-21T05:42:38;101731.00;;;28.20
12918;BMP180;6526;54.312;13.092;2022-07-21T05:45:06;101723.00;;;28.30
12918;BMP180;6526;54.312;13.092;2022-07-21T05:47:32;101725.00;;;28.40
12918;BMP180;6526;54.312;13.092;2022-07-21T05:49:59;101732.00;;;28.60
12918;BMP180;6526;54.312;13.092;2022-07-21T05:52:25;101724.00;;;29.00
12918;BMP180;6526;54.312;13.092;2022-07-21T05:54:51;101724.00;;;29.10
12918;BMP180;6526;54.312;13.092;2022-07-21T05:57:17;101722.00;;;29.40
12918;BMP180;6526;54.312;13.092;2022-07-21T05:59:47;101715.00;;;29.60
12918;BMP180;6526;54.312;13.092;2022-07-21T06:02:13;101712.00;;;29.70
12918;BMP180;6526;54.312;13.092;2022-07-21T06:04:39;101713.00;;;29.80
12918;BMP180;6526;54.312;13.092;2022-07-21T06:07:05;101697.00;;;29.80
12918;BMP180;6526;54.312;13.092;2022-07-21T06:09:31;101703.00;;;29.80
12918;BMP180;6526;54.312;13.092;2022-07-21T06:11:57;101701.00;;;30.00
12918;BMP180;6526;54.312;13.092;2022-07-21T06:14:23;101701.00;;;30.00
12918;BMP180;6526;54.312;13.092;2022-07-21T06:16:49;101690.00;;;30.20
12918;BMP180;6526;54.312;13.092;2022-07-21T06:19:16;101685.00;;;30.30
12918;BMP180;6526;54.312;13.092;2022-07-21T06:21:42;101692.00;;;30.30
12918;BMP180;6526;54.312;13.092;2022-07-21T06:24:09;101687.00;;;30.40
12918;BMP180;6526;54.312;13.092;2022-07-21T06:26:35;101699.00;;;30.60
12918;BMP180;6526;54.312;13.092;2022-07-21T06:29:02;101716.00;;;30.90
12918;BMP180;6526;54.312;13.092;2022-07-21T06:31:28;101708.00;;;31.10
12918;BMP180;6526;54.312;13.092;2022-07-21T06:33:54;101708.00;;;31.30
12918;BMP180;6526;54.312;13.092;2022-07-21T06:36:20;101712.00;;;31.50
12918;BMP180;6526;54.312;13.092;2022-07-21T06:38:46;101714.00;;;31.50
12918;BMP180;6526;54.312;13.092;2022-07-21T06:41:13;101705.00;;;31.60
12918;BMP180;6526;54.312;13.092;2022-07-21T06:43:39;101703.00;;;31.70
12918;BMP180;6526;54.312;13.092;2022-07-21T06:46:05;101702.00;;;31.90
12918;BMP180;6526;54.312;13.092;2022-07-21T06:48:31;101688.00;;;32.00
12918;BMP180;6526;54.312;13.092;2022-07-21T06:50:57;101696.00;;;32.10
12918;BMP180;6526;54.312;13.092;2022-07-21T06:53:24;101697.00;;;32.10
12918;BMP180;6526;54.312;13.092;2022-07-21T06:55:51;101707.00;;;32.40
12918;BMP180;6526;54.312;13.092;2022-07-21T06:58:20;101718.00;;;32.50
12918;BMP180;6526;54.312;13.092;2022-07-21T07:00:47;101725.00;;;32.70
12918;BMP180;6526;54.312;13.092;2022-07-21T07:03:14;101713.00;;;32.90
12918;BMP180;6526;54.312;13.092;2022-07-21T07:05:43;101722.00;;;32.90
12918;BMP180;6526;54.312;13.092;2022-07-21T07:08:09;101721.00;;;32.90
12918;BMP180;6526;54.312;13.092;2022-07-21T07:10:35;101724.00;;;33.20
12918;BMP180;6526;54.312;13.092;2022-07-21T07:13:01;101718.00;;;33.30
12918;BMP180;6526;54.312;13.092;2022-07-21T07:15:28;101727.00;;;33.30
12918;BMP180;6526;54.312;13.092;2022-07-21T07:17:55;101734.00;;;33.30
12918;BMP180;6526;54.312;13.092;2022-07-21T07:20:22;101738.00;;;33.10
12918;BMP180;6526;54.312;13.092;2022-07-21T07:22:48;101709.00;;;33.10
12918;BMP180;6526;54.312;13.092;2022-07-21T07:25:15;101729.00;;;32.90
12918;BMP180;6526;54.312;13.092;2022-07-21T07:27:46;101736.00;;;32.80
12918;BMP180;6526;54.312;13.092;2022-07-21T07:30:12;101735.00;;;32.80
12918;BMP180;6526;54.312;13.092;2022-07-21T07:32:38;101727.00;;;32.80
12918;BMP180;6526;54.312;13.092;2022-07-21T07:35:06;101737.00;;;32.80
12918;BMP180;6526;54.312;13.092;2022-07-21T07:37:35;101736.00;;;32.90
12918;BMP180;6526;54.312;13.092;2022-07-21T07:40:03;101727.00;;;33.10
12918;BMP180;6526;54.312;13.092;2022-07-21T07:42:29;101732.00;;;33.30
12918;BMP180;6526;54.312;13.092;2022-07-21T07:44:55;101722.00;;;33.40
12918;BMP180;6526;54.312;13.092;2022-07-21T07:47:21;101725.00;;;33.40
12918;BMP180;6526;54.312;13.092;2022-07-21T07:49:47;101718.00;;;33.30
12918;BMP180;6526;54.312;13.092;2022-07-21T07:52:16;101727.00;;;33.20
12918;BMP180;6526;54.312;13.092;2022-07-21T07:54:42;101719.00;;;33.20
12918;BMP180;6526;54.312;13.092;2022-07-21T07:57:08;101718.00;;;33.40
12918;BMP180;6526;54.312;13.092;2022-07-21T07:59:34;101719.00;;;33.40
12918;BMP180;6526;54.312;13.092;2022-07-21T08:02:00;101728.00;;;33.60
12918;BMP180;6526;54.312;13.092;2022-07-21T08:04:26;101726.00;;;33.80
12918;BMP180;6526;54.312;13.092;2022-07-21T08:06:52;101723.00;;;34.00
12918;BMP180;6526;54.312;13.092;2022-07-21T08:09:18;101726.00;;;34.20
12918;BMP180;6526;54.312;13.092;2022-07-21T08:11:45;101721.00;;;34.20
12918;BMP180;6526;54.312;13.092;2022-07-21T08:14:13;101737.00;;;34.20
12918;BMP180;6526;54.312;13.092;2022-07-21T08:16:39;101729.00;;;34.30
12918;BMP180;6526;54.312;13.092;2022-07-21T08:19:06;101722.00;;;34.40
12918;BMP180;6526;54.312;13.092;2022-07-21T08:21:32;101730.00;;;34.60
12918;BMP180;6526;54.312;13.092;2022-07-21T08:24:00;101722.00;;;34.60
12918;BMP180;6526;54.312;13.092;2022-07-21T08:26:26;101733.00;;;34.80
12918;BMP180;6526;54.312;13.092;2022-07-21T08:28:53;101723.00;;;34.90
12918;BMP180;6526;54.312;13.092;2022-07-21T08:31:19;101723.00;;;35.10
12918;BMP180;6526;54.312;13.092;2022-07-21T08:33:46;101726.00;;;35.20
12918;BMP180;6526;54.312;13.092;2022-07-21T08:36:12;101722.00;;;35.50
12918;BMP180;6526;54.312;13.092;2022-07-21T08:38:38;101711.00;;;35.80
12918;BMP180;6526;54.312;13.092;2022-07-21T08:41:04;101714.00;;;35.60
12918;BMP180;6526;54.312;13.092;2022-07-21T08:43:31;101726.00;;;35.60
12918;BMP180;6526;54.312;13.092;2022-07-21T08:45:57;101715.00;;;35.50
12918;BMP180;6526;54.312;13.092;2022-07-21T08:48:24;101715.00;;;35.70
12918;BMP180;6526;54.312;13.092;2022-07-21T08:50:52;101714.00;;;36.00
12918;BMP180;6526;54.312;13.092;2022-07-21T08:53:18;101713.00;;;36.10
12918;BMP180;6526;54.312;13.092;2022-07-21T08:55:44;101721.00;;;36.10
12918;BMP180;6526;54.312;13.092;2022-07-21T08:58:12;101711.00;;;36.30
12918;BMP180;6526;54.312;13.092;2022-07-21T09:00:44;101718.00;;;36.30
12918;BMP180;6526;54.312;13.092;2022-07-21T09:03:23;101718.00;;;36.30
12918;BMP180;6526;54.312;13.092;2022-07-21T09:06:08;101730.00;;;36.20
12918;BMP180;6526;54.312;13.092;2022-07-21T09:08:45;101740.00;;;36.30
12918;BMP180;6526;54.312;13.092;2022-07-21T09:11:28;101745.00;;;36.30
12918;BMP180;6526;54.312;13.092;2022-07-21T09:14:11;101756.00;;;35.90
12918;BMP180;6526;54.312;13.092;2022-07-21T09:16:41;101757.00;;;35.50
12918;BMP180;6526;54.312;13.092;2022-07-21T09:19:16;101770.00;;;35.40
12918;BMP180;6526;54.312;13.092;2022-07-21T09:21:43;101778.00;;;35.20
12918;BMP180;6526;54.312;13.092;2022-07-21T09:24:26;101782.00;;;35.10
12918;BMP180;6526;54.312;13.092;2022-07-21T09:32:28;101801.00;;;34.10
12918;BMP180;6526;54.312;13.092;2022-07-21T09:35:14;101794.00;;;33.90
12918;BMP180;6526;54.312;13.092;2022-07-21T09:37:41;101811.00;;;33.70
12918;BMP180;6526;54.312;13.092;2022-07-21T09:40:09;101807.00;;;33.70
12918;BMP180;6526;54.312;13.092;2022-07-21T09:42:45;101801.00;;;33.60
12918;BMP180;6526;54.312;13.092;2022-07-21T09:45:15;101803.00;;;33.40
12918;BMP180;6526;54.312;13.092;2022-07-21T09:47:44;101800.00;;;33.40
12918;BMP180;6526;54.312;13.092;2022-07-21T09:50:13;101802.00;;;33.50
12918;BMP180;6526;54.312;13.092;2022-07-21T09:52:45;101803.00;;;33.70
12918;BMP180;6526;54.312;13.092;2022-07-21T09:55:13;101800.00;;;33.60
12918;BMP180;6526;54.312;13.092;2022-07-21T09:57:40;101806.00;;;33.90
12918;BMP180;6526;54.312;13.092;2022-07-21T10:00:09;101802.00;;;34.20
12918;BMP180;6526;54.312;13.092;2022-07-21T10:02:36;101816.00;;;34.30
12918;BMP180;6526;54.312;13.092;2022-07-21T10:05:08;101807.00;;;33.90
12918;BMP180;6526;54.312;13.092;2022-07-21T10:07:38;101804.00;;;33.80
12918;BMP180;6526;54.312;13.092;2022-07-21T10:10:05;101812.00;;;34.00
12918;BMP180;6526;54.312;13.092;2022-07-21T10:12:32;101823.00;;;33.90
12918;BMP180;6526;54.312;13.092;2022-07-21T10:14:58;101812.00;;;33.80
12918;BMP180;6526;54.312;13.092;2022-07-21T10:17:25;101824.00;;;33.70
12918;BMP180;6526;54.312;13.092;2022-07-21T10:25:27;101827.00;;;33.30
12918;BMP180;6526;54.312;13.092;2022-07-21T10:28:12;101844.00;;;33.40
12918;BMP180;6526;54.312;13.092;2022-07-21T10:30:51;101848.00;;;33.70
12918;BMP180;6526;54.312;13.092;2022-07-21T10:33:22;101860.00;;;33.70
12918;BMP180;6526;54.312;13.092;2022-07-21T10:35:49;101855.00;;;33.50
12918;BMP180;6526;54.312;13.092;2022-07-21T10:38:33;101851.00;;;33.20
12918;BMP180;6526;54.312;13.092;2022-07-21T10:41:01;101875.00;;;33.00
12918;BMP180;6526;54.312;13.092;2022-07-21T10:45:55;101860.00;;;33.00
12918;BMP180;6526;54.312;13.092;2022-07-21T10:51:16;101873.00;;;33.00
12918;BMP180;6526;54.312;13.092;2022-07-21T10:53:43;101872.00;;;33.10
12918;BMP180;6526;54.312;13.092;2022-07-21T10:56:29;101859.00;;;33.00
12918;BMP180;6526;54.312;13.092;2022-07-21T10:58:57;101865.00;;;33.10
12918;BMP180;6526;54.312;13.092;2022-07-21T11:01:24;101875.00;;;33.10
12918;BMP180;6526;54.312;13.092;2022-07-21T11:04:08;101871.00;;;32.90
12918;BMP180;6526;54.312;13.092;2022-07-21T11:06:39;101883.00;;;32.90
12918;BMP180;6526;54.312;13.092;2022-07-21T11:11:36;101884.00;;;32.60
12918;BMP180;6526;54.312;13.092;2022-07-21T11:14:08;101882.00;;;32.70
12918;BMP180;6526;54.312;13.092;2022-07-21T11:22:27;101903.00;;;32.60
12918;BMP180;6526;54.312;13.092;2022-07-21T11:25:04;101899.00;;;32.50
12918;BMP180;6526;54.312;13.092;2022-07-21T11:27:32;101899.00;;;32.50
12918;BMP180;6526;54.312;13.092;2022-07-21T11:30:00;101898.00;;;32.50
12918;BMP180;6526;54.312;13.092;2022-07-21T11:32:27;101890.00;;;32.60
12918;BMP180;6526;54.312;13.092;2022-07-21T11:35:01;101899.00;;;32.60
12918;BMP180;6526;54.312;13.092;2022-07-21T11:37:32;101899.00;;;32.70
12918;BMP180;6526;54.312;13.092;2022-07-21T11:39:58;101906.00;;;32.80
12918;BMP180;6526;54.312;13.092;2022-07-21T11:42:26;101911.00;;;32.50
12918;BMP180;6526;54.312;13.092;2022-07-21T11:44:52;101906.00;;;32.20
12918;BMP180;6526;54.312;13.092;2022-07-21T11:47:18;101911.00;;;32.20
12918;BMP180;6526;54.312;13.092;2022-07-21T11:49:48;101913.00;;;32.10
12918;BMP180;6526;54.312;13.092;2022-07-21T11:52:17;101932.00;;;32.20
12918;BMP180;6526;54.312;13.092;2022-07-21T11:54:44;101939.00;;;32.20
12918;BMP180;6526;54.312;13.092;2022-07-21T11:57:12;101933.00;;;32.10
12918;BMP180;6526;54.312;13.092;2022-07-21T11:59:38;101954.00;;;32.20
12918;BMP180;6526;54.312;13.092;2022-07-21T12:02:24;101961.00;;;32.30
12918;BMP180;6526;54.312;13.092;2022-07-21T12:04:52;101964.00;;;32.30
12918;BMP180;6526;54.312;13.092;2022-07-21T12:07:25;101971.00;;;32.20
12918;BMP180;6526;54.312;13.092;2022-07-21T12:09:54;101972.00;;;32.20
12918;BMP180;6526;54.312;13.092;2022-07-21T12:12:34;101976.00;;;32.00
12918;BMP180;6526;54.312;13.092;2022-07-21T12:15:22;101973.00;;;32.00
12918;BMP180;6526;54.312;13.092;2022-07-21T12:18:07;101978.00;;;32.00
12918;BMP180;6526;54.312;13.092;2022-07-21T12:20:35;101978.00;;;32.00
12918;BMP180;6526;54.312;13.092;2022-07-21T12:23:07;101982.00;;;32.20
12918;BMP180;6526;54.312;13.092;2022-07-21T12:25:42;101977.00;;;32.30
12918;BMP180;6526;54.312;13.092;2022-07-21T12:28:09;101977.00;;;32.50
12918;BMP180;6526;54.312;13.092;2022-07-21T12:30:44;101979.00;;;32.80
12918;BMP180;6526;54.312;13.092;2022-07-21T12:33:16;101960.00;;;32.90
12918;BMP180;6526;54.312;13.092;2022-07-21T12:35:45;101969.00;;;33.00
12918;BMP180;6526;54.312;13.092;2022-07-21T12:38:13;101965.00;;;32.90
12918;BMP180;6526;54.312;13.092;2022-07-21T12:40:45;101966.00;;;32.80
12918;BMP180;6526;54.312;13.092;2022-07-21T12:43:15;101948.00;;;33.00
12918;BMP180;6526;54.312;13.092;2022-07-21T12:46:00;101953.00;;;33.10
12918;BMP180;6526;54.312;13.092;2022-07-21T12:48:29;101950.00;;;33.20
12918;BMP180;6526;54.312;13.092;2022-07-21T12:53:46;101945.00;;;33.70
12918;BMP180;6526;54.312;13.092;2022-07-21T12:56:15;101955.00;;;33.60
12918;BMP180;6526;54.312;13.092;2022-07-21T12:58:42;101956.00;;;33.80
12918;BMP180;6526;54.312;13.092;2022-07-21T13:01:09;101940.00;;;33.70
12918;BMP180;6526;54.312;13.092;2022-07-21T13:03:35;101949.00;;;33.80
12918;BMP180;6526;54.312;13.092;2022-07-21T13:06:03;101948.00;;;33.70
12918;BMP180;6526;54.312;13.092;2022-07-21T13:08:29;101936.00;;;33.80
12918;BMP180;6526;54.312;13.092;2022-07-21T13:10:56;101928.00;;;33.70
12918;BMP180;6526;54.312;13.092;2022-07-21T13:13:22;101926.00;;;33.50
12918;BMP180;6526;54.312;13.092;2022-07-21T13:15:48;101934.00;;;33.40
12918;BMP180;6526;54.312;13.092;2022-07-21T13:18:14;101945.00;;;33.30
12918;BMP180;6526;54.312;13.092;2022-07-21T13:20:40;101960.00;;;33.20
12918;BMP180;6526;54.312;13.092;2022-07-21T13:23:07;101962.00;;;33.20
12918;BMP180;6526;54.312;13.092;2022-07-21T13:25:34;101956.00;;;33.10
12918;BMP180;6526;54.312;13.092;2022-07-21T13:28:02;101952.00;;;33.10
12918;BMP180;6526;54.312;13.092;2022-07-21T13:30:28;101938.00;;;33.10
12918;BMP180;6526;54.312;13.092;2022-07-21T13:32:54;101928.00;;;33.00
12918;BMP180;6526;54.312;13.092;2022-07-21T13:35:20;101929.00;;;33.00
12918;BMP180;6526;54.312;13.092;2022-07-21T13:37:46;101916.00;;;33.00
12918;BMP180;6526;54.312;13.092;2022-07-21T13:40:12;101909.00;;;33.00
12918;BMP180;6526;54.312;13.092;2022-07-21T13:42:38;101914.00;;;32.80
12918;BMP180;6526;54.312;13.092;2022-07-21T13:45:05;101935.00;;;32.80
12918;BMP180;6526;54.312;13.092;2022-07-21T13:47:33;101931.00;;;33.00
12918;BMP180;6526;54.312;13.092;2022-07-21T13:49:59;101951.00;;;32.70
12918;BMP180;6526;54.312;13.092;2022-07-21T13:52:25;101942.00;;;32.70
12918;BMP180;6526;54.312;13.092;2022-07-21T13:54:52;101939.00;;;32.80
12918;BMP180;6526;54.312;13.092;2022-07-21T13:57:18;101942.00;;;33.00
12918;BMP180;6526;54.312;13.092;2022-07-21T13:59:44;101924.00;;;33.20
12918;BMP180;6526;54.312;13.092;2022-07-21T14:02:10;101922.00;;;33.10
12918;BMP180;6526;54.312;13.092;2022-07-21T14:04:36;101937.00;;;33.00
12918;BMP180;6526;54.312;13.092;2022-07-21T14:07:02;101923.00;;;32.90
12918;BMP180;6526;54.312;13.092;2022-07-21T14:09:28;101928.00;;;33.00
12918;BMP180;6526;54.312;13.092;2022-07-21T14:11:54;101923.00;;;32.90
12918;BMP180;6526;54.312;13.092;2022-07-21T14:14:21;101914.00;;;33.00
12918;BMP180;6526;54.312;13.092;2022-07-21T14:16:49;101921.00;;;33.00
12918;BMP180;6526;54.312;13.092;2022-07-21T14:19:16;101926.00;;;33.00
12918;BMP180;6526;54.312;13.092;2022-07-21T14:21:42;101928.00;;;33.00
12918;BMP180;6526;54.312;13.092;2022-07-21T14:24:08;101940.00;;;32.90
12918;BMP180;6526;54.312;13.092;2022-07-21T14:26:53;101937.00;;;32.90